createdAt,value
2023-04-18T00:00:06.383Z,73.42
2023-04-18T00:01:06.407Z,72.09
2023-04-18T00:02:06.463Z,75.82
2023-04-18T00:03:06.659Z,72.57
2023-04-18T00:04:06.701Z,73.23
2023-04-18T00:05:06.511Z,72.71
2023-04-18T00:06:06.551Z,73.79
2023-04-18T00:07:06.560Z,74.80
2023-04-18T00:08:06.496Z,75.65
2023-04-18T00:09:06.535Z,75.00
2023-04-18T00:10:06.566Z,76.54
2023-04-18T00:11:06.513Z,75.92
2023-04-18T00:12:06.588Z,73.18
2023-04-18T00:13:06.582Z,74.69
2023-04-18T00:14:06.600Z,75.72
2023-04-18T00:15:06.609Z,73.56
2023-04-18T00:16:06.607Z,74.11
2023-04-18T00:17:06.743Z,75.39
2023-04-18T00:18:06.656Z,75.40
2023-04-18T00:19:06.643Z,74.27
2023-04-18T00:20:06.635Z,74.39
2023-04-18T00:21:06.657Z,73.65
2023-04-18T00:22:06.706Z,72.00
2023-04-18T00:23:06.708Z,75.65
2023-04-18T00:24:06.709Z,74.24
2023-04-18T00:25:06.706Z,76.75
2023-04-18T00:26:06.723Z,74.07
2023-04-18T00:27:06.690Z,76.21
2023-04-18T00:28:06.738Z,74.79
2023-04-18T00:29:06.747Z,74.59
2023-04-18T00:30:06.834Z,73.52
2023-04-18T00:31:06.869Z,76.27
2023-04-18T00:32:06.821Z,71.18
2023-04-18T00:33:06.838Z,73.28
2023-04-18T00:34:06.828Z,75.92
2023-04-18T00:35:06.847Z,76.41
2023-04-18T00:36:06.883Z,75.60
2023-04-18T00:37:06.893Z,74.54
2023-04-18T00:38:06.969Z,73.92
2023-04-18T00:39:06.924Z,78.49
2023-04-18T00:40:06.960Z,74.16
2023-04-18T00:41:06.973Z,77.02
2023-04-18T00:42:06.999Z,74.90
2023-04-18T00:43:06.992Z,74.84
2023-04-18T00:44:06.998Z,77.36
2023-04-18T00:45:07.041Z,79.78
2023-04-18T00:46:07.107Z,75.34
2023-04-18T00:47:07.061Z,76.32
2023-04-18T00:48:07.196Z,76.82
2023-04-18T00:49:07.140Z,76.98
2023-04-18T00:50:07.140Z,78.75
2023-04-18T00:51:07.144Z,78.82
2023-04-18T00:52:07.165Z,75.70
2023-04-18T00:53:07.216Z,77.50
2023-04-18T00:54:07.216Z,80.18
2023-04-18T00:55:07.223Z,77.09
2023-04-18T00:56:07.227Z,75.74
2023-04-18T00:57:07.279Z,77.74
2023-04-18T00:58:07.299Z,75.49
2023-04-18T00:59:07.347Z,75.84
2023-04-18T01:00:07.366Z,75.75
2023-04-18T01:01:07.373Z,75.80
2023-04-18T01:02:07.406Z,76.75
2023-04-18T01:03:07.538Z,75.01
2023-04-18T01:04:07.478Z,76.44
2023-04-18T01:05:07.501Z,75.71
2023-04-18T01:06:07.498Z,77.16
2023-04-18T01:07:07.711Z,81.71
2023-04-18T01:08:07.598Z,76.68
2023-04-18T01:09:07.586Z,74.11
2023-04-18T01:10:07.591Z,77.80
2023-04-18T01:11:07.592Z,77.74
2023-04-18T01:12:07.678Z,77.68
2023-04-18T01:13:07.651Z,77.08
2023-04-18T01:14:07.654Z,77.48
2023-04-18T01:15:07.738Z,78.63
2023-04-18T01:16:07.761Z,76.10
2023-04-18T01:17:07.753Z,76.79
2023-04-18T01:18:07.791Z,76.72
2023-04-18T01:19:07.799Z,76.30
2023-04-18T01:20:07.856Z,79.53
2023-04-18T01:21:07.871Z,80.14
2023-04-18T01:22:07.863Z,75.37
2023-04-18T01:23:07.877Z,78.78
2023-04-18T01:24:07.923Z,78.39
2023-04-18T01:25:07.939Z,75.34
2023-04-18T01:26:07.962Z,76.92
2023-04-18T01:27:08.005Z,81.14
2023-04-18T01:28:08.015Z,77.23
2023-04-18T01:29:08.059Z,77.49
2023-04-18T01:30:08.081Z,76.46
2023-04-18T01:31:08.162Z,77.30
2023-04-18T01:32:08.156Z,77.36
2023-04-18T01:33:08.173Z,78.57
2023-04-18T01:34:08.226Z,78.56
2023-04-18T01:35:08.215Z,75.72
2023-04-18T01:36:08.270Z,77.16
2023-04-18T01:37:08.292Z,77.92
2023-04-18T01:38:08.279Z,82.49
2023-04-18T01:39:08.338Z,79.23
2023-04-18T01:40:08.347Z,78.88
2023-04-18T01:41:08.417Z,80.22
2023-04-18T01:42:08.425Z,78.16
2023-04-18T01:43:08.425Z,79.34
2023-04-18T01:44:08.481Z,77.65
2023-04-18T01:45:08.487Z,80.39
2023-04-18T01:46:08.583Z,77.57
2023-04-18T01:47:08.549Z,78.48
2023-04-18T01:48:08.565Z,76.64
2023-04-18T01:49:08.621Z,76.64
2023-04-18T01:50:08.625Z,79.42
2023-04-18T01:51:08.678Z,78.10
2023-04-18T01:52:08.662Z,77.23
2023-04-18T01:53:08.701Z,80.70
2023-04-18T01:54:08.760Z,80.16
2023-04-18T01:55:08.749Z,78.58
2023-04-18T01:56:08.821Z,79.27
2023-04-18T01:57:08.823Z,79.72
2023-04-18T01:58:08.847Z,80.72
2023-04-18T01:59:08.849Z,78.68
2023-04-18T02:00:08.974Z,79.46
2023-04-18T02:01:09.012Z,80.25
2023-04-18T02:02:08.955Z,77.27
2023-04-18T02:03:09.142Z,80.95
2023-04-18T02:04:09.131Z,76.27
2023-04-18T02:05:09.024Z,77.02
2023-04-18T02:06:09.104Z,77.73
2023-04-18T02:07:09.112Z,79.06
2023-04-18T02:08:09.133Z,79.69
2023-04-18T02:09:09.156Z,76.71
2023-04-18T02:10:09.165Z,78.83
2023-04-18T02:11:09.183Z,77.00
2023-04-18T02:12:09.246Z,78.12
2023-04-18T02:13:09.246Z,79.14
2023-04-18T02:14:09.297Z,81.73
2023-04-18T02:15:09.301Z,75.91
2023-04-18T02:16:09.468Z,80.52
2023-04-18T02:17:09.392Z,78.05
2023-04-18T02:18:09.441Z,80.69
2023-04-18T02:19:09.431Z,77.27
2023-04-18T02:20:09.450Z,80.13
2023-04-18T02:21:09.437Z,79.05
2023-04-18T02:22:09.564Z,80.59
2023-04-18T02:23:09.513Z,79.04
2023-04-18T02:24:09.598Z,80.18
2023-04-18T02:25:09.577Z,79.68
2023-04-18T02:26:09.585Z,79.13
2023-04-18T02:27:09.627Z,79.59
2023-04-18T02:28:09.656Z,79.38
2023-04-18T02:29:09.707Z,81.33
2023-04-18T02:30:09.781Z,77.95
2023-04-18T02:31:09.717Z,82.33
2023-04-18T02:32:09.790Z,78.74
2023-04-18T02:33:09.811Z,78.55
2023-04-18T02:34:09.861Z,80.87
2023-04-18T02:35:09.912Z,79.24
2023-04-18T02:36:09.883Z,80.24
2023-04-18T02:37:09.973Z,77.80
2023-04-18T02:38:09.990Z,80.96
2023-04-18T02:39:10.007Z,79.98
2023-04-18T02:40:10.023Z,79.53
2023-04-18T02:41:10.049Z,78.34
2023-04-18T02:42:10.103Z,78.76
2023-04-18T02:43:10.107Z,80.36
2023-04-18T02:44:10.179Z,78.14
2023-04-18T02:45:10.182Z,77.94
2023-04-18T02:46:10.300Z,79.59
2023-04-18T02:47:10.249Z,80.31
2023-04-18T02:48:10.337Z,79.75
2023-04-18T02:49:10.335Z,79.01
2023-04-18T02:50:10.355Z,80.56
2023-04-18T02:51:10.438Z,78.02
2023-04-18T02:52:10.452Z,80.18
2023-04-18T02:53:10.493Z,81.03
2023-04-18T02:54:10.505Z,82.86
2023-04-18T02:55:10.576Z,80.18
2023-04-18T02:56:10.575Z,81.91
2023-04-18T02:57:10.591Z,78.65
2023-04-18T02:58:10.615Z,77.31
2023-04-18T02:59:10.649Z,82.03
2023-04-18T03:00:10.693Z,80.17
2023-04-18T03:01:10.761Z,80.15
2023-04-18T03:02:10.779Z,79.49
2023-04-18T03:03:10.889Z,80.83
2023-04-18T03:04:10.819Z,80.07
2023-04-18T03:05:10.857Z,80.31
2023-04-18T03:06:10.877Z,80.31
2023-04-18T03:07:10.900Z,82.12
2023-04-18T03:08:10.922Z,79.48
2023-04-18T03:09:10.954Z,81.82
2023-04-18T03:10:10.971Z,81.90
2023-04-18T03:11:11.050Z,79.39
2023-04-18T03:12:11.085Z,81.22
2023-04-18T03:13:11.136Z,76.00
2023-04-18T03:14:11.347Z,79.14
2023-04-18T03:15:11.185Z,79.55
2023-04-18T03:16:11.251Z,80.64
2023-04-18T03:17:11.222Z,79.41
2023-04-18T03:18:11.266Z,82.34
2023-04-18T03:19:11.334Z,78.22
2023-04-18T03:20:11.343Z,80.75
2023-04-18T03:21:11.368Z,80.07
2023-04-18T03:22:11.392Z,81.78
2023-04-18T03:23:11.422Z,79.76
2023-04-18T03:24:12.334Z,78.49
2023-04-18T03:25:11.497Z,83.14
2023-04-18T03:26:11.529Z,80.76
2023-04-18T03:27:11.544Z,79.29
2023-04-18T03:28:11.598Z,84.08
2023-04-18T03:29:11.573Z,80.17
2023-04-18T03:30:11.637Z,80.00
2023-04-18T03:31:11.685Z,81.51
2023-04-18T03:32:11.668Z,80.48
2023-04-18T03:33:11.717Z,78.67
2023-04-18T03:34:11.946Z,80.22
2023-04-18T03:35:11.806Z,79.40
2023-04-18T03:36:11.821Z,78.55
2023-04-18T03:37:11.826Z,78.34
2023-04-18T03:38:11.912Z,79.28
2023-04-18T03:39:11.920Z,84.12
2023-04-18T03:40:11.983Z,78.88
2023-04-18T03:41:11.969Z,79.35
2023-04-18T03:42:12.068Z,79.16
2023-04-18T03:43:12.048Z,81.69
2023-04-18T03:44:12.193Z,80.48
2023-04-18T03:45:12.138Z,82.07
2023-04-18T03:46:12.193Z,82.80
2023-04-18T03:47:12.177Z,78.28
2023-04-18T03:48:12.246Z,82.43
2023-04-18T03:49:12.253Z,80.21
2023-04-18T03:50:12.310Z,80.00
2023-04-18T03:51:12.379Z,80.21
2023-04-18T03:52:12.376Z,78.08
2023-04-18T03:53:12.379Z,78.44
2023-04-18T03:54:12.662Z,80.68
2023-04-18T03:55:12.503Z,82.42
2023-04-18T03:56:12.518Z,81.39
2023-04-18T03:57:12.563Z,80.77
2023-04-18T03:58:12.643Z,80.38
2023-04-18T03:59:12.619Z,82.38
2023-04-18T04:00:12.673Z,80.32
2023-04-18T04:01:12.665Z,78.38
2023-04-18T04:02:12.767Z,78.39
2023-04-18T04:03:12.879Z,79.75
2023-04-18T04:04:13.192Z,82.02
2023-04-18T04:05:12.819Z,82.04
2023-04-18T04:06:12.894Z,81.38
2023-04-18T04:07:12.884Z,81.69
2023-04-18T04:08:12.916Z,80.69
2023-04-18T04:09:12.943Z,83.15
2023-04-18T04:10:13.008Z,80.06
2023-04-18T04:11:13.064Z,78.81
2023-04-18T04:12:13.074Z,79.64
2023-04-18T04:13:13.155Z,78.28
2023-04-18T04:14:13.502Z,81.91
2023-04-18T04:15:13.227Z,78.41
2023-04-18T04:16:13.280Z,79.33
2023-04-18T04:17:13.274Z,78.89
2023-04-18T04:18:13.332Z,81.54
2023-04-18T04:19:13.325Z,79.95
2023-04-18T04:20:13.396Z,82.30
2023-04-18T04:21:13.457Z,78.65
2023-04-18T04:22:13.443Z,76.10
2023-04-18T04:23:13.497Z,77.53
2023-04-18T04:24:13.871Z,79.96
2023-04-18T04:25:13.605Z,78.05
2023-04-18T04:26:13.591Z,76.71
2023-04-18T04:27:13.659Z,79.76
2023-04-18T04:28:13.753Z,80.33
2023-04-18T04:29:13.736Z,76.77
2023-04-18T04:30:13.786Z,75.89
2023-04-18T04:31:13.846Z,76.89
2023-04-18T04:32:13.875Z,76.23
2023-04-18T04:33:13.885Z,74.70
2023-04-18T04:34:14.353Z,77.26
2023-04-18T04:35:14.622Z,76.97
2023-04-18T04:36:14.388Z,73.42
2023-04-18T04:37:14.108Z,78.61
2023-04-18T04:38:14.159Z,74.07
2023-04-18T04:39:14.105Z,78.37
2023-04-18T04:40:14.168Z,74.54
2023-04-18T04:41:14.169Z,73.41
2023-04-18T04:42:14.195Z,78.56
2023-04-18T04:43:14.272Z,72.41
2023-04-18T04:44:14.481Z,73.01
2023-04-18T04:45:14.313Z,70.94
2023-04-18T04:46:14.405Z,74.47
2023-04-18T04:47:14.396Z,72.94
2023-04-18T04:48:14.465Z,73.03
2023-04-18T04:49:14.487Z,73.25
2023-04-18T04:50:14.511Z,72.94
2023-04-18T04:51:14.563Z,69.92
2023-04-18T04:52:14.574Z,71.90
2023-04-18T04:53:14.636Z,74.15
2023-04-18T04:54:14.750Z,75.80
2023-04-18T04:55:14.695Z,74.02
2023-04-18T04:56:14.859Z,71.69
2023-04-18T04:57:14.794Z,71.65
2023-04-18T04:58:14.845Z,70.94
2023-04-18T04:59:14.860Z,69.67
2023-04-18T05:00:14.901Z,70.43
2023-04-18T05:01:14.964Z,71.98
2023-04-18T05:02:15.040Z,72.60
2023-04-18T05:03:15.108Z,70.61
2023-04-18T05:04:15.498Z,68.48
2023-04-18T05:05:15.128Z,69.64
2023-04-18T05:06:15.144Z,70.87
2023-04-18T05:07:15.188Z,72.60
2023-04-18T05:08:15.253Z,71.47
2023-04-18T05:09:15.254Z,70.40
2023-04-18T05:10:15.316Z,72.31
2023-04-18T05:11:15.354Z,68.77
2023-04-18T05:12:15.384Z,71.15
2023-04-18T05:13:15.434Z,66.61
2023-04-18T05:14:15.856Z,67.82
2023-04-18T05:15:15.497Z,67.79
2023-04-18T05:16:15.609Z,65.53
2023-04-18T05:17:15.559Z,67.71
2023-04-18T05:18:15.585Z,67.54
2023-04-18T05:19:15.639Z,69.45
2023-04-18T05:20:15.712Z,68.69
2023-04-18T05:21:15.757Z,70.96
2023-04-18T05:22:15.817Z,65.38
2023-04-18T05:23:15.835Z,68.09
2023-04-18T05:24:16.076Z,67.34
2023-04-18T05:25:15.930Z,67.14
2023-04-18T05:26:15.941Z,65.17
2023-04-18T05:27:18.038Z,64.97
2023-04-18T05:28:16.039Z,64.76
2023-04-18T05:29:16.054Z,63.30
2023-04-18T05:30:16.138Z,63.25
2023-04-18T05:31:16.233Z,62.97
2023-04-18T05:32:16.196Z,63.71
2023-04-18T05:33:16.234Z,64.68
2023-04-18T05:34:16.453Z,65.99
2023-04-18T05:35:16.355Z,61.07
2023-04-18T05:36:16.370Z,52.43
2023-04-18T05:37:16.497Z,49.68
2023-04-18T05:38:16.586Z,52.18
2023-04-18T05:39:16.563Z,54.17
2023-04-18T05:40:16.620Z,55.23
2023-04-18T05:41:16.712Z,40.71
2023-04-18T05:42:16.757Z,21.67
2023-04-18T05:43:17.768Z,35.88
2023-04-18T05:44:17.230Z,30.82
2023-04-18T05:45:16.876Z,25.60
2023-04-18T05:46:16.954Z,30.63
2023-04-18T05:47:16.842Z,24.63
2023-04-18T05:48:16.821Z,24.76
2023-04-18T05:49:16.861Z,30.13
2023-04-18T05:50:16.865Z,26.56
2023-04-18T05:51:17.187Z,29.31
2023-04-18T05:52:16.901Z,31.81
2023-04-18T05:53:16.964Z,29.15
2023-04-18T05:54:16.996Z,33.53
2023-04-18T05:55:17.086Z,31.10
2023-04-18T05:56:17.084Z,42.92
2023-04-18T05:57:17.181Z,34.55
2023-04-18T05:58:17.122Z,47.03
2023-04-18T05:59:17.208Z,41.99
2023-04-18T06:00:17.166Z,49.69
2023-04-18T06:01:17.657Z,54.91
2023-04-18T06:02:17.342Z,56.05
2023-04-18T06:03:17.585Z,64.06
2023-04-18T06:04:17.874Z,67.88
2023-04-18T06:05:17.881Z,75.41
2023-04-18T06:06:17.505Z,76.05
2023-04-18T06:07:17.484Z,80.34
2023-04-18T06:08:17.503Z,91.51
2023-04-18T06:09:17.532Z,94.32
2023-04-18T06:10:17.589Z,100.38
2023-04-18T06:11:17.583Z,103.89
2023-04-18T06:12:17.635Z,111.32
2023-04-18T06:13:17.602Z,122.12
2023-04-18T06:14:17.658Z,124.03
2023-04-18T06:15:17.653Z,128.98
2023-04-18T06:16:17.745Z,134.15
2023-04-18T06:17:17.662Z,136.56
2023-04-18T06:18:17.615Z,140.70
2023-04-18T06:19:17.644Z,144.64
2023-04-18T06:20:18.208Z,151.19
2023-04-18T06:21:17.641Z,150.45
2023-04-18T06:22:17.666Z,154.95
2023-04-18T06:23:17.716Z,156.13
2023-04-18T06:24:17.678Z,158.00
2023-04-18T06:25:17.690Z,164.32
2023-04-18T06:26:17.744Z,169.75
2023-04-18T06:27:30.557Z,174.51
2023-04-18T06:28:18.773Z,174.84
2023-04-18T06:29:17.774Z,175.40
2023-04-18T06:30:17.749Z,177.74
2023-04-18T06:31:18.211Z,182.47
2023-04-18T06:32:17.769Z,191.51
2023-04-18T06:33:18.209Z,194.58
2023-04-18T06:34:17.727Z,200.52
2023-04-18T06:35:18.202Z,200.95
2023-04-18T06:36:17.984Z,207.09
2023-04-18T06:37:17.857Z,213.04
2023-04-18T06:38:17.921Z,191.60
2023-04-18T06:39:18.029Z,162.14
2023-04-18T06:40:18.066Z,145.25
2023-04-18T06:41:18.007Z,161.18
2023-04-18T06:42:19.662Z,157.48
2023-04-18T06:43:18.124Z,167.78
2023-04-18T06:44:18.027Z,178.04
2023-04-18T06:45:17.969Z,182.36
2023-04-18T06:46:18.721Z,184.38
2023-04-18T06:47:17.987Z,189.28
2023-04-18T06:48:18.190Z,189.15
2023-04-18T06:49:17.936Z,191.18
2023-04-18T06:50:17.969Z,186.89
2023-04-18T06:51:17.899Z,188.63
2023-04-18T06:52:17.912Z,188.84
2023-04-18T06:53:17.914Z,188.28
2023-04-18T06:54:17.946Z,197.09
2023-04-18T06:55:17.885Z,197.25
2023-04-18T06:56:17.902Z,200.76
2023-04-18T06:57:17.911Z,203.25
2023-04-18T06:58:17.903Z,204.77
2023-04-18T06:59:17.860Z,204.65
2023-04-18T07:00:17.886Z,208.03
2023-04-18T07:01:17.866Z,209.22
2023-04-18T07:02:17.969Z,206.28
2023-04-18T07:03:18.013Z,213.08
2023-04-18T07:04:18.144Z,216.57
2023-04-18T07:05:17.848Z,221.84
2023-04-18T07:06:17.785Z,226.44
2023-04-18T07:07:17.821Z,226.63
2023-04-18T07:08:17.823Z,229.24
2023-04-18T07:09:17.817Z,237.29
2023-04-18T07:10:17.787Z,240.67
2023-04-18T07:11:18.242Z,243.21
2023-04-18T07:12:17.754Z,246.05
2023-04-18T07:13:17.739Z,248.02
2023-04-18T07:14:17.746Z,249.00
2023-04-18T07:15:17.850Z,248.60
2023-04-18T07:16:19.123Z,249.45
2023-04-18T07:17:17.695Z,250.00
2023-04-18T07:18:30.343Z,247.90
2023-04-18T07:19:18.875Z,248.43
2023-04-18T07:20:17.758Z,250.28
2023-04-18T07:21:17.872Z,256.58
2023-04-18T07:22:17.682Z,261.44
2023-04-18T07:23:17.711Z,264.92
2023-04-18T07:24:17.704Z,248.43
2023-04-18T07:25:17.636Z,250.00
2023-04-18T07:26:17.699Z,249.37
2023-04-18T07:27:17.756Z,247.38
2023-04-18T07:28:17.634Z,248.08
2023-04-18T07:29:17.710Z,247.30
2023-04-18T07:30:17.673Z,244.73
2023-04-18T07:31:17.709Z,240.99
2023-04-18T07:32:17.679Z,235.73
2023-04-18T07:33:17.657Z,224.52
2023-04-18T07:34:17.634Z,205.63
2023-04-18T07:35:17.688Z,179.71
2023-04-18T07:36:17.702Z,181.72
2023-04-18T07:37:17.596Z,199.72
2023-04-18T07:38:18.228Z,225.48
2023-04-18T07:39:17.619Z,230.21
2023-04-18T07:40:17.586Z,245.62
2023-04-18T07:41:17.615Z,238.89
2023-04-18T07:42:17.701Z,221.48
2023-04-18T07:43:18.714Z,222.78
2023-04-18T07:44:17.750Z,215.75
2023-04-18T07:45:17.815Z,211.09
2023-04-18T07:46:17.924Z,212.18
2023-04-18T07:47:22.251Z,200.28
2023-04-18T07:48:17.839Z,200.69
2023-04-18T07:49:17.694Z,198.01
2023-04-18T07:50:17.687Z,191.47
2023-04-18T07:51:17.705Z,180.33
2023-04-18T07:52:17.706Z,175.20
2023-04-18T07:53:17.707Z,159.07
2023-04-18T07:54:18.114Z,149.64
2023-04-18T07:55:18.223Z,151.22
2023-04-18T07:56:17.637Z,155.06
2023-04-18T07:57:17.651Z,157.18
2023-04-18T07:58:17.656Z,150.24
2023-04-18T07:59:17.605Z,142.39
2023-04-18T08:00:17.613Z,139.72
2023-04-18T08:01:17.633Z,135.86
2023-04-18T08:02:17.815Z,129.77
2023-04-18T08:03:17.798Z,129.32
2023-04-18T08:04:17.955Z,122.29
2023-04-18T08:05:17.644Z,119.72
2023-04-18T08:06:17.555Z,118.53
2023-04-18T08:07:17.602Z,119.03
2023-04-18T08:08:17.568Z,115.49
2023-04-18T08:09:17.819Z,116.04
2023-04-18T08:10:17.578Z,112.08
2023-04-18T08:11:17.626Z,109.50
2023-04-18T08:12:17.533Z,106.32
2023-04-18T08:13:17.601Z,106.71
2023-04-18T08:14:17.515Z,103.27
2023-04-18T08:15:17.505Z,100.37
2023-04-18T08:16:17.764Z,96.10
2023-04-18T08:17:17.579Z,98.04
2023-04-18T08:18:17.642Z,86.42
2023-04-18T08:19:17.740Z,77.52
2023-04-18T08:20:17.592Z,74.80
2023-04-18T08:21:17.603Z,71.57
2023-04-18T08:22:17.609Z,73.04
2023-04-18T08:23:17.619Z,79.62
2023-04-18T08:24:17.630Z,82.00
2023-04-18T08:25:17.722Z,40.62
2023-04-18T08:26:17.649Z,25.12
2023-04-18T08:27:17.694Z,7.60
2023-04-18T08:28:17.744Z,19.00
2023-04-18T08:29:17.821Z,20.41
2023-04-18T08:30:17.863Z,13.58
2023-04-18T08:31:17.860Z,25.00
2023-04-18T08:32:17.878Z,25.00
2023-04-18T08:33:17.950Z,30.10
2023-04-18T08:34:17.987Z,25.30
2023-04-18T08:35:18.048Z,25.30
2023-04-18T08:36:18.128Z,24.97
2023-04-18T08:37:18.131Z,26.52
2023-04-18T08:38:18.177Z,25.69
2023-04-18T08:39:18.144Z,24.50
2023-04-18T08:40:18.188Z,22.09
2023-04-18T08:41:18.194Z,25.00
2023-04-18T08:42:18.220Z,33.97
2023-04-18T08:43:18.243Z,54.84
2023-04-18T08:44:18.267Z,69.98
2023-04-18T08:45:18.267Z,68.57
2023-04-18T08:46:18.316Z,70.31
2023-04-18T08:47:18.335Z,60.86
2023-04-18T08:48:18.718Z,61.29
2023-04-18T08:49:18.458Z,53.27
2023-04-18T08:50:18.528Z,48.96
2023-04-18T08:51:18.676Z,48.51
2023-04-18T08:52:18.718Z,49.30
2023-04-18T08:53:18.743Z,38.45
2023-04-18T08:54:18.641Z,41.79
2023-04-18T08:55:18.639Z,38.47
2023-04-18T08:56:18.646Z,32.53
2023-04-18T08:57:18.633Z,30.43
2023-04-18T08:58:18.624Z,31.21
2023-04-18T08:59:18.627Z,28.47
2023-04-18T09:00:19.653Z,25.00
2023-04-18T09:01:18.667Z,28.33
2023-04-18T09:02:18.726Z,32.17
2023-04-18T09:03:18.667Z,46.41
2023-04-18T09:04:18.821Z,47.29
2023-04-18T09:05:18.655Z,44.80
2023-04-18T09:06:18.742Z,52.79
2023-04-18T09:07:18.780Z,55.39
2023-04-18T09:08:19.212Z,66.28
2023-04-18T09:09:19.253Z,70.43
2023-04-18T09:10:18.913Z,74.86
2023-04-18T09:11:18.922Z,79.24
2023-04-18T09:12:18.868Z,75.13
2023-04-18T09:13:18.893Z,66.45
2023-04-18T09:14:18.957Z,59.09
2023-04-18T09:15:18.931Z,61.76
2023-04-18T09:16:18.982Z,63.38
2023-04-18T09:17:18.981Z,59.40
2023-04-18T09:18:18.988Z,59.50
2023-04-18T09:19:19.134Z,64.77
2023-04-18T09:20:19.031Z,58.55
2023-04-18T09:21:19.105Z,64.75
2023-04-18T09:22:19.129Z,69.89
2023-04-18T09:23:19.096Z,75.79
2023-04-18T09:24:19.113Z,76.87
2023-04-18T09:25:19.121Z,76.62
2023-04-18T09:26:19.162Z,83.91
2023-04-18T09:27:19.124Z,90.85
2023-04-18T09:28:19.737Z,91.51
2023-04-18T09:29:19.145Z,93.36
2023-04-18T09:30:19.146Z,102.93
2023-04-18T09:31:19.180Z,87.25
2023-04-18T09:32:19.259Z,95.19
2023-04-18T09:33:19.376Z,93.18
2023-04-18T09:34:19.222Z,82.21
2023-04-18T09:35:19.214Z,89.63
2023-04-18T09:36:19.342Z,80.15
2023-04-18T09:37:19.258Z,82.18
2023-04-18T09:38:19.361Z,81.84
2023-04-18T09:39:19.359Z,82.48
2023-04-18T09:40:19.364Z,95.48
2023-04-18T09:41:21.517Z,104.96
2023-04-18T09:42:19.406Z,108.99
2023-04-18T09:43:19.385Z,112.21
2023-04-18T09:44:19.520Z,111.75
2023-04-18T09:45:19.400Z,114.76
2023-04-18T09:46:19.499Z,116.62
2023-04-18T09:47:19.501Z,120.84
2023-04-18T09:48:19.625Z,121.82
2023-04-18T09:49:19.626Z,123.23
2023-04-18T09:50:19.693Z,120.12
2023-04-18T09:51:19.761Z,119.54
2023-04-18T09:52:19.772Z,116.54
2023-04-18T09:53:20.937Z,104.74
2023-04-18T09:54:19.860Z,106.19
2023-04-18T09:55:19.985Z,105.66
2023-04-18T09:56:19.997Z,97.48
2023-04-18T09:57:20.121Z,101.36
2023-04-18T09:58:20.087Z,99.65
2023-04-18T09:59:21.221Z,99.47
2023-04-18T10:00:20.205Z,103.47
2023-04-18T10:01:20.323Z,99.78
2023-04-18T10:02:20.345Z,94.78
2023-04-18T10:03:20.421Z,91.66
2023-04-18T10:04:20.393Z,93.56
2023-04-18T10:05:21.382Z,82.79
2023-04-18T10:06:20.352Z,77.25
2023-04-18T10:07:20.366Z,64.58
2023-04-18T10:08:21.320Z,65.06
2023-04-18T10:09:20.766Z,67.39
2023-04-18T10:10:20.325Z,70.49
2023-04-18T10:11:20.380Z,76.75
2023-04-18T10:12:20.361Z,86.53
2023-04-18T10:13:20.314Z,90.23
2023-04-18T10:14:20.320Z,88.94
2023-04-18T10:15:20.360Z,75.30
2023-04-18T10:16:20.827Z,70.44
2023-04-18T10:17:20.339Z,56.28
2023-04-18T10:18:20.494Z,45.00
2023-04-18T10:19:20.301Z,33.90
2023-04-18T10:20:20.247Z,24.06
2023-04-18T10:21:20.257Z,25.01
2023-04-18T10:22:20.250Z,25.00
2023-04-18T10:23:20.268Z,24.21
2023-04-18T10:24:20.282Z,27.31
2023-04-18T10:25:20.226Z,29.34
2023-04-18T10:26:20.231Z,25.00
2023-04-18T10:27:20.812Z,21.36
2023-04-18T10:28:20.311Z,28.44
2023-04-18T10:29:20.266Z,30.68
2023-04-18T10:30:20.219Z,29.06
2023-04-18T10:31:20.248Z,25.00
2023-04-18T10:32:20.280Z,25.00
2023-04-18T10:33:30.482Z,27.12
2023-04-18T10:34:21.415Z,25.29
2023-04-18T10:35:20.234Z,26.33
2023-04-18T10:36:20.266Z,23.51
2023-04-18T10:37:20.270Z,25.13
2023-04-18T10:38:20.803Z,24.72
2023-04-18T10:39:20.277Z,22.07
2023-04-18T10:40:20.227Z,27.19
2023-04-18T10:41:20.188Z,25.00
2023-04-18T10:42:20.199Z,24.83
2023-04-18T10:43:20.200Z,27.82
2023-04-18T10:44:20.210Z,26.68
2023-04-18T10:45:20.219Z,23.72
2023-04-18T10:46:31.069Z,26.62
2023-04-18T10:47:21.277Z,19.73
2023-04-18T10:48:20.314Z,19.99
2023-04-18T10:49:20.130Z,17.85
2023-04-18T10:50:20.143Z,23.70
2023-04-18T10:51:20.104Z,22.19
2023-04-18T10:52:20.188Z,27.82
2023-04-18T10:53:20.268Z,25.21
2023-04-18T10:54:20.113Z,25.66
2023-04-18T10:55:20.073Z,26.18
2023-04-18T10:56:20.086Z,25.61
2023-04-18T10:57:20.081Z,30.11
2023-04-18T10:58:20.108Z,30.34
2023-04-18T10:59:20.311Z,28.56
2023-04-18T11:00:20.050Z,25.00
2023-04-18T11:01:20.078Z,25.22
2023-04-18T11:02:20.147Z,25.72
2023-04-18T11:03:20.111Z,25.50
2023-04-18T11:04:20.347Z,26.84
2023-04-18T11:05:20.036Z,30.74
2023-04-18T11:06:19.997Z,33.27
2023-04-18T11:07:20.763Z,28.27
2023-04-18T11:08:20.007Z,28.48
2023-04-18T11:09:19.988Z,27.73
2023-04-18T11:10:20.101Z,28.11
2023-04-18T11:11:19.972Z,30.28
2023-04-18T11:12:20.031Z,29.32
2023-04-18T11:13:19.947Z,25.24
2023-04-18T11:14:20.300Z,26.98
2023-04-18T11:15:19.925Z,32.45
2023-04-18T11:16:20.015Z,30.40
2023-04-18T11:17:19.975Z,29.76
2023-04-18T11:18:19.922Z,25.94
2023-04-18T11:19:20.342Z,26.52
2023-04-18T11:20:19.949Z,26.92
2023-04-18T11:21:19.947Z,25.00
2023-04-18T11:22:19.893Z,28.52
2023-04-18T11:23:19.925Z,30.91
2023-04-18T11:24:19.920Z,28.04
2023-04-18T11:25:20.305Z,27.56
2023-04-18T11:26:20.002Z,27.61
2023-04-18T11:27:19.899Z,29.16
2023-04-18T11:28:19.921Z,30.68
2023-04-18T11:29:19.838Z,25.84
2023-04-18T11:30:20.355Z,27.29
2023-04-18T11:31:25.729Z,30.64
2023-04-18T11:32:20.545Z,30.81
2023-04-18T11:33:19.829Z,31.21
2023-04-18T11:34:19.837Z,32.37
2023-04-18T11:35:19.850Z,34.20
2023-04-18T11:36:20.824Z,28.27
2023-04-18T11:37:19.868Z,32.90
2023-04-18T11:38:19.804Z,29.76
2023-04-18T11:39:19.817Z,29.83
2023-04-18T11:40:19.782Z,32.96
2023-04-18T11:41:19.767Z,36.10
2023-04-18T11:42:19.779Z,33.92
2023-04-18T11:43:19.789Z,31.08
2023-04-18T11:44:19.737Z,30.08
2023-04-18T11:45:19.818Z,26.43
2023-04-18T11:46:19.818Z,28.03
2023-04-18T11:47:19.767Z,26.84
2023-04-18T11:48:19.732Z,29.14
2023-04-18T11:49:19.725Z,29.07
2023-04-18T11:50:19.737Z,29.85
2023-04-18T11:51:19.681Z,25.00
2023-04-18T11:52:19.695Z,22.10
2023-04-18T11:53:19.751Z,26.31
2023-04-18T11:54:19.705Z,32.84
2023-04-18T11:55:19.666Z,44.14
2023-04-18T11:56:19.662Z,65.23
2023-04-18T11:57:19.666Z,85.13
2023-04-18T11:58:19.641Z,94.36
2023-04-18T11:59:19.637Z,103.50
2023-04-18T12:00:19.619Z,107.81
2023-04-18T12:01:19.663Z,112.33
2023-04-18T12:02:19.752Z,116.16
2023-04-18T12:03:19.743Z,115.88
2023-04-18T12:04:20.259Z,114.23
2023-04-18T12:05:19.881Z,111.12
2023-04-18T12:06:19.751Z,108.35
2023-04-18T12:07:19.579Z,108.51
2023-04-18T12:08:19.585Z,109.97
2023-04-18T12:09:19.570Z,113.42
2023-04-18T12:10:19.573Z,129.57
2023-04-18T12:11:19.571Z,131.52
2023-04-18T12:12:19.574Z,135.44
2023-04-18T12:13:19.581Z,138.30
2023-04-18T12:14:19.527Z,139.44
2023-04-18T12:15:19.553Z,142.58
2023-04-18T12:16:19.627Z,144.03
2023-04-18T12:17:19.556Z,147.02
2023-04-18T12:18:19.516Z,150.86
2023-04-18T12:19:19.558Z,152.81
2023-04-18T12:20:19.526Z,154.15
2023-04-18T12:21:19.479Z,157.02
2023-04-18T12:22:19.485Z,159.86
2023-04-18T12:23:19.483Z,161.59
2023-04-18T12:24:19.498Z,165.29
2023-04-18T12:25:19.459Z,167.42
2023-04-18T12:26:19.471Z,170.69
2023-04-18T12:27:19.473Z,172.96
2023-04-18T12:28:19.479Z,173.75
2023-04-18T12:29:21.531Z,178.95
2023-04-18T12:30:19.510Z,180.32
2023-04-18T12:31:19.530Z,181.54
2023-04-18T12:32:19.740Z,181.50
2023-04-18T12:33:19.564Z,186.60
2023-04-18T12:34:19.572Z,187.19
2023-04-18T12:35:19.586Z,189.76
2023-04-18T12:36:19.584Z,191.61
2023-04-18T12:37:19.541Z,193.56
2023-04-18T12:38:19.553Z,193.99
2023-04-18T12:39:19.578Z,196.48
2023-04-18T12:40:19.550Z,197.92
2023-04-18T12:41:19.607Z,199.13
2023-04-18T12:42:19.681Z,200.40
2023-04-18T12:43:19.695Z,200.20
2023-04-18T12:44:19.735Z,201.92
2023-04-18T12:45:19.790Z,202.79
2023-04-18T12:46:19.867Z,204.83